createdAt,value
2019-06-07T00:00:38.779Z,5.40
2019-06-07T00:02:59.204Z,3.93
2019-06-07T00:05:27.769Z,4.60
2019-06-07T00:08:07.092Z,4.87
2019-06-07T00:10:35.835Z,4.60
2019-06-07T00:12:56.687Z,7.40
2019-06-07T00:15:29.140Z,6.53
2019-06-07T00:17:55.457Z,6.87
2019-06-07T00:20:24.231Z,5.10
2019-06-07T00:22:52.830Z,4.33
2019-06-07T00:25:24.534Z,5.95
2019-06-07T00:27:51.680Z,4.25
2019-06-07T00:30:37.519Z,6.37
2019-06-07T00:32:51.069Z,6.50
2019-06-07T00:35:22.366Z,5.60
2019-06-07T00:37:50.353Z,5.47
2019-06-07T00:40:30.894Z,4.87
2019-06-07T00:42:49.362Z,7.05
2019-06-07T00:45:21.617Z,5.28
2019-06-07T00:47:48.349Z,4.53
2019-06-07T00:50:21.039Z,4.72
2019-06-07T00:55:20.641Z,6.58
2019-06-07T00:57:50.451Z,4.97
2019-06-07T01:00:24.925Z,5.60
2019-06-07T01:02:50.605Z,6.53
2019-06-07T01:05:22.573Z,6.25
2019-06-07T01:07:50.450Z,6.03
2019-06-07T01:10:46.095Z,6.00
2019-06-07T01:12:49.361Z,7.15
2019-06-07T01:15:28.526Z,7.95
2019-06-07T01:18:33.098Z,5.72
2019-06-07T01:20:24.826Z,8.00
2019-06-07T01:22:53.505Z,6.12
2019-06-07T01:25:24.423Z,5.83
2019-06-07T01:27:52.313Z,5.42
2019-06-07T01:30:26.022Z,6.55
2019-06-07T01:32:53.086Z,5.58
2019-06-07T01:35:23.128Z,6.65
2019-06-07T01:37:51.890Z,6.05
2019-06-07T01:40:27.815Z,6.65
2019-06-07T01:42:51.214Z,9.45
2019-06-07T01:45:21.352Z,6.58
2019-06-07T01:47:50.609Z,7.68
2019-06-07T01:50:22.925Z,8.93
2019-06-07T01:52:50.829Z,6.80
2019-06-07T01:55:23.072Z,7.05
2019-06-07T01:57:50.654Z,8.30
2019-06-07T02:00:21.672Z,8.43
2019-06-07T02:02:50.779Z,8.72
2019-06-07T02:05:21.051Z,7.03
2019-06-07T02:07:50.499Z,10.93
2019-06-07T02:10:20.432Z,10.15
2019-06-07T02:12:50.717Z,12.88
2019-06-07T02:15:23.012Z,12.78
2019-06-07T02:17:50.631Z,9.25
2019-06-07T02:20:20.369Z,7.62
2019-06-07T02:22:49.371Z,9.43
2019-06-07T02:25:37.060Z,7.70
2019-06-07T02:27:48.213Z,7.92
2019-06-07T02:30:41.710Z,8.00
2019-06-07T02:32:47.153Z,7.78
2019-06-07T02:35:15.775Z,7.67
2019-06-07T02:37:44.238Z,7.75
2019-06-07T02:40:12.985Z,10.00
2019-06-07T02:42:42.664Z,8.78
2019-06-07T02:45:12.222Z,8.53
2019-06-07T02:47:41.500Z,7.72
2019-06-07T02:50:11.725Z,6.85
2019-06-07T02:52:41.374Z,9.25
2019-06-07T02:55:11.712Z,9.40
2019-06-07T02:57:42.172Z,10.00
2019-06-07T03:00:45.862Z,10.23
2019-06-07T03:02:43.650Z,9.43
2019-06-07T03:05:12.359Z,9.58
2019-06-07T03:07:45.162Z,8.60
2019-06-07T03:10:13.429Z,9.50
2019-06-07T03:12:45.220Z,9.13
2019-06-07T03:15:32.127Z,7.40
2019-06-07T03:17:55.246Z,7.92
2019-06-07T03:20:29.944Z,8.28
2019-06-07T03:23:01.055Z,8.13
2019-06-07T03:25:35.748Z,7.90
2019-06-07T03:28:03.635Z,8.25
2019-06-07T03:30:46.163Z,9.28
2019-06-07T03:33:02.344Z,8.30
2019-06-07T03:35:32.671Z,7.72
2019-06-07T03:38:01.149Z,7.80
2019-06-07T03:40:31.530Z,7.40
2019-06-07T03:42:59.971Z,8.45
2019-06-07T03:45:29.027Z,7.45
2019-06-07T03:47:58.655Z,9.00
2019-06-07T03:50:30.588Z,9.70
2019-06-07T03:52:57.339Z,8.20
2019-06-07T03:55:27.670Z,9.13
2019-06-07T04:00:28.755Z,7.53
2019-06-07T04:02:56.570Z,7.83
2019-06-07T04:05:25.049Z,9.65
2019-06-07T04:07:53.506Z,8.40
2019-06-07T04:10:44.664Z,11.33
2019-06-07T04:12:52.261Z,7.42
2019-06-07T04:15:20.872Z,8.50
2019-06-07T04:18:01.336Z,10.35
2019-06-07T04:20:19.594Z,7.97
2019-06-07T04:22:48.122Z,7.65
2019-06-07T04:25:16.688Z,8.75
2019-06-07T04:27:45.157Z,8.18
2019-06-07T04:30:15.563Z,7.17
2019-06-07T04:32:44.957Z,8.75
2019-06-07T04:35:14.445Z,7.00
2019-06-07T04:37:43.701Z,6.67
2019-06-07T04:40:13.135Z,6.65
2019-06-07T04:42:45.391Z,6.47
2019-06-07T04:45:32.602Z,6.62
2019-06-07T04:47:46.500Z,8.40
2019-06-07T04:50:15.797Z,7.03
2019-06-07T04:52:45.408Z,6.45
2019-06-07T04:55:14.858Z,6.90
2019-06-07T04:57:43.501Z,6.60
2019-06-07T05:00:46.673Z,6.75
2019-06-07T05:02:43.546Z,9.18
2019-06-07T05:05:12.937Z,11.63
2019-06-07T05:07:46.036Z,7.30
2019-06-07T05:10:11.670Z,8.05
2019-06-07T05:12:44.017Z,7.40
2019-06-07T05:15:10.605Z,7.78
2019-06-07T05:17:42.441Z,7.75
2019-06-07T05:20:09.435Z,6.55
2019-06-07T05:22:40.877Z,10.43
2019-06-07T05:25:08.490Z,8.33
2019-06-07T05:27:39.340Z,8.18
2019-06-07T05:30:36.449Z,8.13
2019-06-07T05:32:43.864Z,7.33
2019-06-07T05:35:11.410Z,7.72
2019-06-07T05:37:43.799Z,8.38
2019-06-07T05:40:10.731Z,7.92
2019-06-07T05:42:43.310Z,7.22
2019-06-07T05:45:10.038Z,8.08
2019-06-07T05:47:44.376Z,9.08
2019-06-07T05:50:37.810Z,7.47
2019-06-07T05:52:43.944Z,4.35
2019-06-07T05:55:10.055Z,8.95
2019-06-07T05:57:43.484Z,6.45
2019-06-07T06:00:09.128Z,10.32
2019-06-07T06:02:57.595Z,7.17
2019-06-07T06:05:08.325Z,8.47
2019-06-07T06:07:41.029Z,11.73
2019-06-07T06:10:09.140Z,7.42
2019-06-07T06:12:42.356Z,7.58
2019-06-07T06:15:09.540Z,9.08
2019-06-07T06:17:42.770Z,11.15
2019-06-07T06:20:09.619Z,8.68
2019-06-07T06:22:43.465Z,9.78
2019-06-07T06:25:31.416Z,13.58
2019-06-07T06:28:08.139Z,10.23
2019-06-07T06:30:15.149Z,9.00
2019-06-07T06:32:52.673Z,9.30
2019-06-07T06:35:14.492Z,7.47
2019-06-07T06:37:48.984Z,9.45
2019-06-07T06:40:15.772Z,8.20
2019-06-07T06:42:48.146Z,9.00
2019-06-07T06:45:17.180Z,8.80
2019-06-07T06:47:47.662Z,9.78
2019-06-07T06:50:16.714Z,10.55
2019-06-07T06:52:48.545Z,9.73
2019-06-07T06:55:15.735Z,10.40
2019-06-07T06:57:45.734Z,8.80
2019-06-07T07:00:16.164Z,8.73
2019-06-07T07:03:33.042Z,9.05
2019-06-07T07:05:15.207Z,10.50
2019-06-07T07:07:45.416Z,8.98
2019-06-07T07:10:17.535Z,9.70
2019-06-07T07:12:47.823Z,10.63
2019-06-07T07:15:19.155Z,8.80
2019-06-07T07:18:04.365Z,11.88
2019-06-07T07:20:19.412Z,8.50
2019-06-07T07:22:50.935Z,9.43
2019-06-07T07:25:18.255Z,9.78
2019-06-07T07:27:47.156Z,6.55
2019-06-07T07:30:37.309Z,10.35
2019-06-07T07:32:52.856Z,8.90
2019-06-07T07:35:20.526Z,6.72
2019-06-07T07:37:55.767Z,8.03
2019-06-07T07:40:56.067Z,9.13
2019-06-07T07:42:52.935Z,12.50
2019-06-07T07:45:19.958Z,7.47
2019-06-07T07:48:02.002Z,10.82
2019-06-07T07:50:18.720Z,10.40
2019-06-07T07:52:49.111Z,9.85
2019-06-07T07:55:17.589Z,12.10
2019-06-07T07:57:48.682Z,9.50
2019-06-07T08:00:49.471Z,7.33
2019-06-07T08:02:48.805Z,7.92
2019-06-07T08:05:25.607Z,9.00
2019-06-07T08:07:53.081Z,8.08
2019-06-07T08:10:19.084Z,7.78
2019-06-07T08:13:11.803Z,9.10
2019-06-07T08:15:18.811Z,8.38
2019-06-07T08:17:50.504Z,7.97
2019-06-07T08:20:18.082Z,8.08
2019-06-07T08:22:47.660Z,10.03
2019-06-07T08:25:17.224Z,9.83
2019-06-07T08:27:46.986Z,8.65
2019-06-07T08:30:47.115Z,8.83
2019-06-07T08:32:50.989Z,7.22
2019-06-07T08:36:02.476Z,7.60
2019-06-07T08:40:19.134Z,8.00
2019-06-07T08:43:04.439Z,6.20
2019-06-07T08:45:19.034Z,8.28
2019-06-07T08:47:47.498Z,11.90
2019-06-07T08:50:17.949Z,7.83
2019-06-07T08:52:46.548Z,9.03
2019-06-07T08:55:15.598Z,8.25
2019-06-07T08:57:44.243Z,8.08
2019-06-07T09:00:43.124Z,8.08
2019-06-07T09:02:44.862Z,6.95
2019-06-07T09:05:14.053Z,11.68
2019-06-07T09:07:42.730Z,5.62
2019-06-07T09:10:15.214Z,6.92
2019-06-07T09:12:43.550Z,9.55
2019-06-07T09:15:21.375Z,8.93
2019-06-07T09:18:29.805Z,8.60
2019-06-07T09:20:35.675Z,9.15
2019-06-07T09:22:46.669Z,9.23
2019-06-07T09:25:21.078Z,9.10
2019-06-07T09:27:47.575Z,10.15
2019-06-07T09:30:19.262Z,11.97
2019-06-07T09:32:47.868Z,8.30
2019-06-07T09:35:17.815Z,9.03
2019-06-07T09:40:27.416Z,10.35
2019-06-07T09:43:38.268Z,8.85
2019-06-07T09:45:20.710Z,12.30
2019-06-07T09:47:49.222Z,9.50
2019-06-07T09:50:17.812Z,9.58
2019-06-07T09:52:57.773Z,11.12
2019-06-07T09:55:24.180Z,5.47
2019-06-07T09:57:46.784Z,4.42
2019-06-07T10:00:40.155Z,7.72
2019-06-07T10:02:46.389Z,6.45
2019-06-07T10:05:15.207Z,7.87
2019-06-07T10:07:59.960Z,10.13
2019-06-07T10:12:45.004Z,11.25
2019-06-07T10:15:13.667Z,11.90
2019-06-07T10:17:42.149Z,7.90
2019-06-07T10:20:11.678Z,13.13
2019-06-07T10:22:40.237Z,8.88
2019-06-07T10:25:10.459Z,9.00
2019-06-07T10:27:39.266Z,11.22
2019-06-07T10:30:08.691Z,7.62
2019-06-07T10:32:37.302Z,9.93
2019-06-07T10:35:10.208Z,12.60
2019-06-07T10:37:39.562Z,6.45
2019-06-07T10:40:09.394Z,11.48
2019-06-07T10:42:38.056Z,8.85
2019-06-07T10:45:10.289Z,7.62
2019-06-07T10:47:38.814Z,10.93
2019-06-07T10:50:10.269Z,9.10
2019-06-07T10:52:38.934Z,8.43
2019-06-07T10:55:08.637Z,11.63
2019-06-07T10:57:37.224Z,8.18
2019-06-07T11:00:11.666Z,7.72
2019-06-07T11:02:40.924Z,7.17
2019-06-07T11:05:18.677Z,5.83
2019-06-07T11:07:47.197Z,6.65
2019-06-07T11:10:19.625Z,9.18
2019-06-07T11:13:22.540Z,9.08
2019-06-07T11:15:51.122Z,7.40
2019-06-07T11:18:19.724Z,7.53
2019-06-07T11:20:48.262Z,7.03
2019-06-07T11:23:16.861Z,4.92
2019-06-07T11:25:45.402Z,10.45
2019-06-07T11:28:14.664Z,9.00
2019-06-07T11:30:43.490Z,7.58
2019-06-07T11:33:15.772Z,5.22
2019-06-07T11:35:42.329Z,4.72
2019-06-07T11:38:10.817Z,5.83
2019-06-07T11:40:39.354Z,8.85
2019-06-07T11:43:08.990Z,5.15
2019-06-07T11:45:37.523Z,7.75
2019-06-07T11:48:07.193Z,6.75
2019-06-07T11:50:36.144Z,5.22
2019-06-07T11:53:04.747Z,6.57
2019-06-07T11:55:33.225Z,8.75
2019-06-07T11:58:01.777Z,6.27
2019-06-07T12:00:34.025Z,5.10
2019-06-07T12:03:00.641Z,7.37
2019-06-07T12:05:29.235Z,6.85
2019-06-07T12:07:57.766Z,5.08
2019-06-07T12:10:26.344Z,5.08
2019-06-07T12:15:50.093Z,7.80
2019-06-07T12:18:19.665Z,4.70
2019-06-07T12:20:49.318Z,10.35
2019-06-07T12:23:18.191Z,4.87
2019-06-07T12:25:47.007Z,4.92
2019-06-07T12:28:16.726Z,5.03
2019-06-07T12:30:45.606Z,5.40
2019-06-07T12:33:15.390Z,4.10
2019-06-07T12:35:44.247Z,6.25
2019-06-07T12:38:14.465Z,4.22
2019-06-07T12:40:56.754Z,4.92
2019-06-07T12:43:14.531Z,5.15
2019-06-07T12:45:45.559Z,3.37
2019-06-07T12:48:18.583Z,5.58
2019-06-07T12:50:44.075Z,5.58
2019-06-07T12:53:13.611Z,2.72
2019-06-07T12:55:42.541Z,6.35
2019-06-07T12:58:11.097Z,5.37
2019-06-07T13:00:39.676Z,5.20
2019-06-07T13:03:09.760Z,5.40
2019-06-07T13:05:38.318Z,6.35
2019-06-07T13:08:06.875Z,5.70
2019-06-07T13:10:35.510Z,3.95
2019-06-07T13:13:04.174Z,2.60
2019-06-07T13:15:32.745Z,3.25
2019-06-07T13:18:01.211Z,3.73
2019-06-07T13:20:29.732Z,1.92
2019-06-07T13:22:58.293Z,2.92
2019-06-07T13:25:43.452Z,2.85
2019-06-07T13:27:57.288Z,3.25
2019-06-07T13:30:26.656Z,1.98
2019-06-07T13:32:55.143Z,2.67
2019-06-07T13:35:23.825Z,2.60
2019-06-07T13:37:53.917Z,3.87
2019-06-07T13:40:23.243Z,2.00
2019-06-07T13:42:53.558Z,3.06
2019-06-07T13:45:22.388Z,2.77
2019-06-07T13:47:51.146Z,4.78
2019-06-07T13:50:19.856Z,2.98
2019-06-07T13:52:48.563Z,3.80
2019-06-07T13:55:17.917Z,3.98
2019-06-07T13:57:46.862Z,3.80
2019-06-07T14:00:15.785Z,3.10
2019-06-07T14:02:44.395Z,2.75
2019-06-07T14:05:13.218Z,4.75
2019-06-07T14:07:41.761Z,3.02
2019-06-07T14:10:11.793Z,4.03
2019-06-07T14:12:40.859Z,3.35
2019-06-07T14:15:10.041Z,3.60
2019-06-07T14:17:38.607Z,4.42
2019-06-07T14:20:08.734Z,3.83
2019-06-07T14:22:37.805Z,3.55
2019-06-07T14:25:08.829Z,3.95
2019-06-07T14:27:37.415Z,4.62
2019-06-07T14:30:08.183Z,6.05
2019-06-07T14:32:36.747Z,3.05
2019-06-07T14:35:07.618Z,6.42
2019-06-07T14:37:36.456Z,4.65
2019-06-07T14:40:07.706Z,2.47
2019-06-07T14:42:36.353Z,3.95
2019-06-07T14:45:11.071Z,3.25
2019-06-07T14:47:39.713Z,2.30
2019-06-07T14:50:10.448Z,3.52
2019-06-07T14:52:39.025Z,5.53
2019-06-07T14:55:09.588Z,5.80
2019-06-07T14:57:38.736Z,3.02
2019-06-07T15:00:11.475Z,3.02
2019-06-07T15:02:40.767Z,2.92
2019-06-07T15:05:10.287Z,4.28
2019-06-07T15:07:40.535Z,3.10
2019-06-07T15:10:10.252Z,2.80
2019-06-07T15:12:39.977Z,3.50
2019-06-07T15:15:09.856Z,4.05
2019-06-07T15:17:39.155Z,4.12
2019-06-07T15:20:09.132Z,2.05
2019-06-07T15:22:38.687Z,1.30
2019-06-07T15:25:09.050Z,2.00
2019-06-07T15:27:37.867Z,0.98
2019-06-07T15:30:10.371Z,1.15
2019-06-07T15:32:39.728Z,1.02
2019-06-07T15:35:09.546Z,0.98
2019-06-07T15:37:39.287Z,1.37
2019-06-07T15:40:10.023Z,0.95
2019-06-07T15:42:49.777Z,1.37
2019-06-07T15:45:10.333Z,0.88
2019-06-07T15:47:40.479Z,1.20
2019-06-07T15:50:09.979Z,1.37
2019-06-07T15:52:40.538Z,0.90
2019-06-07T15:55:10.041Z,1.45
2019-06-07T15:57:39.573Z,0.80
2019-06-07T16:00:14.617Z,1.40
2019-06-07T16:02:43.168Z,1.42
2019-06-07T16:05:13.819Z,1.40
2019-06-07T16:07:43.703Z,1.05
2019-06-07T16:10:12.995Z,1.98
2019-06-07T16:12:58.626Z,1.47
2019-06-07T16:15:13.216Z,2.02
2019-06-07T16:17:43.404Z,1.42
2019-06-07T16:20:12.350Z,1.32
2019-06-07T16:22:41.996Z,2.45
2019-06-07T16:25:12.716Z,0.85
2019-06-07T16:27:42.751Z,1.67
2019-06-07T16:30:14.876Z,1.60
2019-06-07T16:32:44.211Z,0.80
2019-06-07T16:35:14.366Z,4.45
2019-06-07T16:37:43.470Z,2.25
2019-06-07T16:40:14.880Z,0.70
2019-06-07T16:42:44.924Z,2.85
2019-06-07T16:45:14.600Z,2.05
2019-06-07T16:47:45.997Z,1.12
2019-06-07T16:50:13.811Z,2.15
2019-06-07T16:52:44.005Z,0.93
2019-06-07T16:55:13.079Z,2.08
2019-06-07T16:57:42.919Z,0.88
2019-06-07T17:00:13.614Z,1.95
2019-06-07T17:02:42.345Z,1.20
2019-06-07T17:05:11.275Z,1.35
2019-06-07T17:07:40.353Z,1.67
2019-06-07T17:10:09.824Z,1.02
2019-06-07T17:12:38.643Z,1.27
2019-06-07T17:15:09.989Z,0.75
2019-06-07T17:17:38.812Z,2.15
2019-06-07T17:20:08.800Z,1.22
2019-06-07T17:22:38.960Z,0.90
2019-06-07T17:25:09.441Z,1.02
2019-06-07T17:27:39.600Z,0.95
2019-06-07T17:30:09.425Z,1.98
2019-06-07T17:32:48.355Z,1.32
2019-06-07T17:35:08.455Z,1.62
2019-06-07T17:37:37.185Z,1.45
2019-06-07T17:40:08.934Z,2.17
2019-06-07T17:42:37.552Z,2.22
2019-06-07T17:45:08.380Z,1.45
2019-06-07T17:47:36.924Z,0.62
2019-06-07T17:50:07.847Z,1.80
2019-06-07T17:52:36.672Z,0.70
2019-06-07T17:55:07.037Z,2.58
2019-06-07T17:57:38.454Z,1.87
2019-06-07T18:00:28.138Z,0.55
2019-06-07T18:02:45.179Z,1.35
2019-06-07T18:05:15.590Z,0.70
2019-06-07T18:07:47.730Z,1.02
2019-06-07T18:10:22.860Z,1.15
2019-06-07T18:12:52.903Z,1.20
2019-06-07T18:15:24.588Z,1.75
2019-06-07T18:17:53.092Z,1.02
2019-06-07T18:20:21.652Z,1.67
2019-06-07T18:22:51.255Z,1.10
2019-06-07T18:25:21.391Z,2.17
2019-06-07T18:27:50.602Z,1.65
2019-06-07T18:33:55.089Z,0.67
2019-06-07T18:36:23.714Z,1.62
2019-06-07T18:38:53.108Z,3.37
2019-06-07T18:41:21.754Z,1.80
2019-06-07T18:43:51.125Z,2.47
2019-06-07T18:46:20.041Z,2.58
2019-06-07T18:48:48.530Z,1.20
2019-06-07T18:51:17.008Z,1.10
2019-06-07T18:53:45.542Z,1.65
2019-06-07T18:56:14.151Z,1.25
2019-06-07T18:58:42.672Z,1.22
2019-06-07T19:01:11.210Z,1.12
2019-06-07T19:03:39.707Z,3.37
2019-06-07T19:06:08.339Z,2.77
2019-06-07T19:08:36.977Z,1.15
2019-06-07T19:11:05.550Z,0.95
2019-06-07T19:13:34.021Z,3.58
2019-06-07T19:16:02.641Z,1.52
2019-06-07T19:18:31.235Z,1.27
2019-06-07T19:21:00.663Z,1.75
2019-06-07T19:23:29.346Z,3.25
2019-06-07T19:26:00.687Z,2.20
2019-06-07T19:28:29.625Z,1.60
2019-06-07T19:30:59.181Z,2.80
2019-06-07T19:33:27.812Z,0.80
2019-06-07T19:35:57.435Z,2.45
2019-06-07T19:38:26.153Z,2.90
2019-06-07T19:40:57.979Z,4.80
2019-06-07T19:43:26.583Z,2.35
2019-06-07T19:45:56.163Z,2.55
2019-06-07T19:48:24.742Z,1.02
2019-06-07T19:50:54.836Z,2.42
2019-06-07T19:53:23.538Z,0.82
2019-06-07T19:55:53.039Z,1.82
2019-06-07T19:58:21.669Z,3.08
2019-06-07T20:00:50.246Z,1.85
2019-06-07T20:03:18.981Z,2.35
2019-06-07T20:05:47.904Z,1.35
2019-06-07T20:08:16.471Z,1.77
2019-06-07T20:10:45.032Z,1.22
2019-06-07T20:13:13.563Z,2.35
2019-06-07T20:15:42.074Z,2.45
2019-06-07T20:18:10.602Z,2.05
2019-06-07T20:20:39.155Z,2.62
2019-06-07T20:23:07.648Z,2.90
2019-06-07T20:25:36.125Z,2.80
2019-06-07T20:28:05.588Z,2.33
2019-06-07T20:30:34.518Z,2.47
2019-06-07T20:33:03.983Z,2.25
2019-06-07T20:35:32.732Z,1.45
2019-06-07T20:38:01.321Z,2.22
2019-06-07T20:40:29.882Z,3.20
2019-06-07T20:42:59.343Z,2.25
2019-06-07T20:45:33.593Z,1.42
2019-06-07T20:47:58.341Z,3.50
2019-06-07T20:50:26.812Z,4.80
2019-06-07T20:52:55.341Z,4.08
2019-06-07T20:55:23.823Z,2.35
2019-06-07T20:57:52.371Z,3.98
2019-06-07T21:00:21.925Z,3.22
2019-06-07T21:02:51.001Z,3.72
2019-06-07T21:05:19.570Z,3.83
2019-06-07T21:07:48.068Z,1.55
2019-06-07T21:10:16.675Z,4.75
2019-06-07T21:12:45.153Z,2.77
2019-06-07T21:15:14.707Z,2.72
2019-06-07T21:17:43.493Z,1.00
2019-06-07T21:20:14.365Z,2.22
2019-06-07T21:22:42.518Z,3.77
2019-06-07T21:25:11.693Z,5.40
2019-06-07T21:27:40.450Z,2.98
2019-06-07T21:30:09.875Z,3.47
2019-06-07T21:32:39.322Z,2.40
2019-06-07T21:35:09.999Z,1.17
2019-06-07T21:37:38.990Z,4.80
2019-06-07T21:40:08.449Z,3.67
2019-06-07T21:42:37.221Z,1.87
2019-06-07T21:45:07.912Z,2.55
2019-06-07T21:47:36.996Z,3.60
2019-06-07T21:50:08.907Z,4.97
2019-06-07T21:52:37.527Z,4.83
2019-06-07T21:55:09.334Z,2.75
2019-06-07T21:57:39.814Z,1.75
2019-06-07T22:00:13.486Z,0.72
2019-06-07T22:02:42.128Z,1.82
2019-06-07T22:05:11.746Z,1.67
2019-06-07T22:07:40.404Z,5.53
2019-06-07T22:10:10.051Z,5.42
2019-06-07T22:12:38.750Z,2.80
2019-06-07T22:15:23.315Z,2.98
2019-06-07T22:17:39.144Z,2.25
2019-06-07T22:20:08.631Z,2.80
2019-06-07T22:22:37.410Z,5.05
2019-06-07T22:25:07.203Z,2.20
2019-06-07T22:27:35.738Z,3.60
2019-06-07T22:30:08.491Z,2.22
2019-06-07T22:32:37.463Z,1.82
2019-06-07T22:35:06.965Z,2.75
2019-06-07T22:37:35.577Z,4.47
2019-06-07T22:40:08.339Z,2.70
2019-06-07T22:42:37.553Z,6.78
2019-06-07T22:45:08.151Z,3.95
2019-06-07T22:47:36.912Z,1.95
2019-06-07T22:50:10.635Z,4.20
2019-06-07T22:52:39.473Z,2.52
2019-06-07T22:55:10.081Z,3.70
2019-06-07T22:57:59.188Z,4.40
2019-06-07T23:00:29.638Z,3.70
2019-06-07T23:02:58.200Z,4.20
2019-06-07T23:05:26.907Z,4.12
2019-06-07T23:07:55.416Z,2.25
2019-06-07T23:10:25.535Z,5.70
2019-06-07T23:12:54.242Z,6.35
2019-06-07T23:15:24.143Z,3.10
2019-06-07T23:17:52.701Z,3.55
2019-06-07T23:20:22.933Z,3.98
2019-06-07T23:22:51.442Z,4.45
2019-06-07T23:25:23.962Z,2.75
2019-06-07T23:27:50.240Z,3.05
2019-06-07T23:30:21.663Z,4.90
2019-06-07T23:32:50.353Z,3.90
2019-06-07T23:35:19.111Z,2.62
2019-06-07T23:37:47.740Z,5.80
2019-06-07T23:40:17.412Z,4.12
2019-06-07T23:42:46.030Z,5.83
2019-06-07T23:45:15.516Z,3.35
2019-06-07T23:47:44.142Z,5.85
2019-06-07T23:50:13.697Z,4.67
2019-06-07T23:52:42.542Z,2.85
2019-06-07T23:55:11.783Z,5.30
2019-06-07T23:57:40.646Z,5.08
